createdAt,value
2019-03-06T00:01:40.484Z,1.00
2019-03-06T00:04:10.379Z,4.20
2019-03-06T00:06:41.152Z,2.60
2019-03-06T00:09:16.084Z,2.20
2019-03-06T00:11:56.083Z,3.00
2019-03-06T00:14:25.991Z,3.00
2019-03-06T00:16:55.916Z,3.20
2019-03-06T00:19:25.924Z,3.00
2019-03-06T00:21:55.539Z,2.60
2019-03-06T00:24:25.312Z,3.00
2019-03-06T00:26:55.621Z,4.80
2019-03-06T00:29:26.334Z,3.40
2019-03-06T00:31:56.381Z,2.60
2019-03-06T00:34:26.280Z,2.20
2019-03-06T00:36:56.662Z,3.00
2019-03-06T00:39:29.080Z,2.00
2019-03-06T00:41:58.733Z,4.00
2019-03-06T00:44:28.880Z,3.60
2019-03-06T00:46:58.619Z,6.00
2019-03-06T00:49:28.335Z,5.20
2019-03-06T00:51:58.044Z,4.40
2019-03-06T00:54:27.683Z,5.20
2019-03-06T00:56:57.832Z,5.20
2019-03-06T00:59:27.586Z,7.40
2019-03-06T01:01:57.454Z,6.00
2019-03-06T01:04:27.188Z,6.80
2019-03-06T01:06:57.218Z,3.00
2019-03-06T01:09:26.770Z,6.00
2019-03-06T01:11:56.708Z,4.80
2019-03-06T01:14:27.896Z,7.00
2019-03-06T01:16:57.653Z,7.80
2019-03-06T01:19:27.379Z,4.80
2019-03-06T01:21:57.817Z,9.00
2019-03-06T01:24:27.595Z,11.20
2019-03-06T01:26:57.257Z,6.20
2019-03-06T01:29:27.046Z,7.00
2019-03-06T01:31:58.301Z,7.00
2019-03-06T01:34:46.153Z,7.00
2019-03-06T01:37:24.985Z,9.60
2019-03-06T01:40:19.464Z,9.00
2019-03-06T01:42:53.902Z,10.40
2019-03-06T01:45:23.788Z,10.00
2019-03-06T01:47:53.517Z,10.00
2019-03-06T01:50:23.260Z,8.20
2019-03-06T01:52:53.509Z,9.00
2019-03-06T01:55:23.527Z,12.00
2019-03-06T01:57:53.206Z,8.60
2019-03-06T02:00:22.949Z,9.60
2019-03-06T02:02:52.743Z,4.00
2019-03-06T02:05:22.531Z,10.00
2019-03-06T02:07:52.284Z,10.40
2019-03-06T02:10:22.619Z,12.00
2019-03-06T02:12:52.812Z,9.80
2019-03-06T02:15:22.718Z,11.20
2019-03-06T02:17:52.843Z,12.20
2019-03-06T02:20:22.813Z,10.00
2019-03-06T02:22:52.866Z,11.60
2019-03-06T02:25:22.647Z,8.20
2019-03-06T02:27:52.592Z,9.80
2019-03-06T02:30:22.649Z,6.80
2019-03-06T02:32:52.359Z,9.40
2019-03-06T02:35:22.049Z,9.00
2019-03-06T02:37:51.877Z,8.20
2019-03-06T02:40:21.829Z,7.00
2019-03-06T02:42:51.595Z,6.80
2019-03-06T02:45:21.751Z,11.80
2019-03-06T02:47:51.333Z,6.60
2019-03-06T02:50:21.086Z,10.60
2019-03-06T02:52:51.020Z,10.00
2019-03-06T02:55:20.845Z,11.60
2019-03-06T02:57:59.408Z,11.80
2019-03-06T03:00:51.202Z,6.80
2019-03-06T03:03:30.753Z,10.40
2019-03-06T03:06:03.783Z,12.00
2019-03-06T03:08:33.770Z,12.40
2019-03-06T03:11:03.737Z,12.40
2019-03-06T03:13:33.873Z,14.60
2019-03-06T03:16:03.703Z,9.80
2019-03-06T03:18:33.982Z,9.60
2019-03-06T03:21:03.788Z,7.40
2019-03-06T03:23:33.629Z,10.00
2019-03-06T03:26:03.343Z,12.00
2019-03-06T03:28:33.087Z,12.60
2019-03-06T03:31:02.868Z,14.40
2019-03-06T03:33:32.763Z,9.80
2019-03-06T03:36:03.127Z,10.00
2019-03-06T03:38:33.047Z,11.60
2019-03-06T03:41:03.031Z,9.40
2019-03-06T03:43:34.475Z,10.40
2019-03-06T03:46:04.258Z,9.60
2019-03-06T03:48:34.087Z,12.40
2019-03-06T03:51:04.382Z,9.60
2019-03-06T03:53:34.400Z,11.20
2019-03-06T03:56:04.579Z,12.20
2019-03-06T03:58:34.377Z,10.20
2019-03-06T04:01:04.164Z,13.60
2019-03-06T04:03:34.541Z,10.60
2019-03-06T04:06:04.670Z,12.00
2019-03-06T04:08:34.864Z,9.40
2019-03-06T04:11:04.779Z,10.00
2019-03-06T04:13:34.874Z,9.20
2019-03-06T04:16:05.274Z,15.20
2019-03-06T04:18:35.211Z,10.00
2019-03-06T04:21:05.234Z,14.20
2019-03-06T04:23:35.123Z,9.80
2019-03-06T04:26:04.690Z,7.80
2019-03-06T04:28:34.897Z,10.40
2019-03-06T04:31:04.595Z,9.20
2019-03-06T04:33:35.773Z,8.80
2019-03-06T04:36:05.566Z,12.60
2019-03-06T04:38:35.550Z,10.00
2019-03-06T04:41:05.377Z,9.80
2019-03-06T04:43:35.306Z,8.40
2019-03-06T04:46:05.091Z,9.00
2019-03-06T04:48:35.282Z,11.20
2019-03-06T04:51:05.110Z,8.60
2019-03-06T04:53:35.048Z,12.20
2019-03-06T04:56:05.096Z,6.40
2019-03-06T04:58:34.925Z,11.60
2019-03-06T05:01:05.176Z,10.00
2019-03-06T05:03:35.071Z,8.60
2019-03-06T05:06:04.899Z,10.20
2019-03-06T05:08:35.423Z,8.80
2019-03-06T05:11:05.427Z,9.40
2019-03-06T05:13:35.202Z,10.00
2019-03-06T05:16:05.083Z,7.80
2019-03-06T05:18:42.119Z,6.00
2019-03-06T05:21:12.135Z,8.60
2019-03-06T05:23:42.363Z,3.60
2019-03-06T05:26:12.198Z,7.80
2019-03-06T05:28:42.254Z,7.00
2019-03-06T05:31:12.079Z,6.60
2019-03-06T05:33:41.958Z,7.80
2019-03-06T05:36:37.720Z,9.20
2019-03-06T05:39:09.027Z,8.20
2019-03-06T05:41:38.776Z,7.00
2019-03-06T05:44:08.724Z,11.60
2019-03-06T05:46:38.744Z,9.40
2019-03-06T05:49:09.304Z,6.60
2019-03-06T05:51:39.023Z,10.40
2019-03-06T05:54:33.368Z,4.40
2019-03-06T05:57:36.883Z,9.00
2019-03-06T06:02:46.219Z,18.00
2019-03-06T06:05:16.118Z,9.40
2019-03-06T06:07:46.128Z,10.80
2019-03-06T06:10:18.215Z,9.60
2019-03-06T06:12:48.029Z,4.00
2019-03-06T06:15:17.800Z,9.60
2019-03-06T06:17:47.712Z,9.60
2019-03-06T06:20:17.581Z,11.20
2019-03-06T06:23:09.137Z,10.80
2019-03-06T06:25:41.312Z,8.80
2019-03-06T06:28:14.391Z,5.60
2019-03-06T06:30:47.929Z,8.60
2019-03-06T06:34:05.717Z,9.60
2019-03-06T06:36:35.458Z,10.40
2019-03-06T06:39:06.917Z,9.00
2019-03-06T06:41:39.099Z,14.60
2019-03-06T06:44:09.021Z,11.60
2019-03-06T06:46:38.916Z,10.60
2019-03-06T06:49:08.535Z,6.40
2019-03-06T06:51:57.958Z,9.80
2019-03-06T06:55:06.119Z,13.00
2019-03-06T06:58:12.872Z,5.60
2019-03-06T07:01:31.341Z,12.20
2019-03-06T07:04:56.610Z,6.20
2019-03-06T07:07:38.854Z,12.20
2019-03-06T07:10:16.759Z,9.80
2019-03-06T07:13:00.181Z,10.60
2019-03-06T07:15:42.627Z,10.20
2019-03-06T07:18:26.887Z,8.20
2019-03-06T07:21:08.148Z,9.00
2019-03-06T07:24:00.046Z,7.00
2019-03-06T07:26:56.732Z,10.20
2019-03-06T07:29:46.567Z,6.60
2019-03-06T07:32:44.032Z,6.40
2019-03-06T07:36:12.559Z,7.40
2019-03-06T07:38:43.458Z,7.00
2019-03-06T07:41:35.585Z,7.20
2019-03-06T07:44:29.793Z,5.40
2019-03-06T07:47:12.114Z,10.00
2019-03-06T07:49:54.790Z,9.20
2019-03-06T07:52:43.376Z,4.00
2019-03-06T07:55:41.141Z,6.60
2019-03-06T07:58:46.620Z,7.80
2019-03-06T08:01:17.232Z,6.20
2019-03-06T08:04:11.548Z,6.00
2019-03-06T08:06:43.711Z,2.20
2019-03-06T08:09:18.578Z,4.60
2019-03-06T08:12:10.133Z,3.80
2019-03-06T08:14:57.980Z,3.00
2019-03-06T08:17:52.642Z,3.40
2019-03-06T08:20:48.694Z,4.00
2019-03-06T08:23:29.892Z,6.00
2019-03-06T08:25:59.858Z,3.80
2019-03-06T08:28:29.669Z,3.20
2019-03-06T08:31:10.934Z,3.40
2019-03-06T08:33:40.441Z,4.00
2019-03-06T08:36:10.889Z,4.00
2019-03-06T08:38:40.898Z,5.80
2019-03-06T08:41:10.559Z,5.20
2019-03-06T08:43:40.903Z,3.00
2019-03-06T08:46:29.410Z,3.80
2019-03-06T08:49:31.436Z,5.60
2019-03-06T08:52:22.798Z,6.00
2019-03-06T08:55:26.603Z,3.80
2019-03-06T08:58:15.635Z,4.80
2019-03-06T09:01:09.976Z,3.80
2019-03-06T09:04:06.080Z,2.60
2019-03-06T09:06:45.916Z,3.40
2019-03-06T09:09:34.951Z,3.00
2019-03-06T09:12:16.658Z,3.40
2019-03-06T09:15:08.216Z,4.40
2019-03-06T09:18:09.094Z,4.00
2019-03-06T09:20:56.364Z,2.20
2019-03-06T09:23:48.089Z,3.60
2019-03-06T09:26:37.066Z,4.00
2019-03-06T09:29:35.740Z,3.00
2019-03-06T09:32:26.595Z,4.40
2019-03-06T09:35:13.750Z,3.80
2019-03-06T09:38:10.990Z,6.00
2019-03-06T09:40:45.731Z,0.00
2019-03-06T09:43:30.356Z,4.80
2019-03-06T09:46:12.633Z,4.80
2019-03-06T09:48:48.041Z,4.20
2019-03-06T09:51:29.901Z,3.80
2019-03-06T09:54:19.751Z,3.80
2019-03-06T09:57:23.967Z,8.60
2019-03-06T10:00:01.294Z,3.00
2019-03-06T10:02:54.112Z,3.00
2019-03-06T10:05:30.617Z,4.00
2019-03-06T10:08:13.650Z,3.80
2019-03-06T10:10:57.447Z,1.80
2019-03-06T10:13:41.744Z,4.60
2019-03-06T10:16:26.239Z,4.80
2019-03-06T10:19:08.139Z,1.40
2019-03-06T10:21:40.281Z,4.00
2019-03-06T10:24:11.765Z,4.00
2019-03-06T10:26:41.540Z,2.60
2019-03-06T10:29:11.320Z,5.80
2019-03-06T10:31:41.753Z,4.00
2019-03-06T10:34:11.312Z,3.00
2019-03-06T10:36:41.137Z,1.40
2019-03-06T10:39:11.537Z,4.00
2019-03-06T10:41:41.600Z,3.80
2019-03-06T10:44:11.463Z,1.80
2019-03-06T10:46:41.678Z,1.40
2019-03-06T10:49:11.360Z,3.00
2019-03-06T10:51:41.655Z,1.80
2019-03-06T10:54:12.085Z,4.00
2019-03-06T10:56:42.419Z,3.60
2019-03-06T10:59:12.537Z,2.20
2019-03-06T11:01:42.808Z,2.20
2019-03-06T11:04:31.761Z,3.00
2019-03-06T11:07:01.742Z,1.00
2019-03-06T11:09:31.798Z,2.60
2019-03-06T11:12:01.515Z,3.00
2019-03-06T11:14:31.916Z,0.20
2019-03-06T11:17:02.329Z,2.20
2019-03-06T11:19:33.139Z,3.00
2019-03-06T11:22:04.705Z,2.20
2019-03-06T11:24:34.523Z,2.60
2019-03-06T11:27:04.607Z,3.00
2019-03-06T11:29:34.484Z,3.00
2019-03-06T11:32:06.632Z,3.20
2019-03-06T11:34:36.726Z,2.20
2019-03-06T11:37:07.263Z,3.00
2019-03-06T11:39:40.156Z,3.20
2019-03-06T11:42:15.812Z,0.80
2019-03-06T11:44:46.154Z,3.00
2019-03-06T11:47:15.962Z,3.00
2019-03-06T11:49:47.384Z,1.00
2019-03-06T11:52:19.296Z,1.00
2019-03-06T11:54:49.125Z,1.40
2019-03-06T11:57:19.483Z,0.00
2019-03-06T11:59:49.358Z,1.00
2019-03-06T12:02:19.654Z,0.00
2019-03-06T12:04:49.730Z,1.40
2019-03-06T12:07:19.638Z,1.00
2019-03-06T12:09:49.319Z,1.80
2019-03-06T12:12:19.767Z,3.00
2019-03-06T12:14:49.529Z,2.20
2019-03-06T12:17:19.665Z,1.40
2019-03-06T12:19:49.323Z,3.00
2019-03-06T12:22:20.761Z,1.00
2019-03-06T12:24:54.083Z,1.00
2019-03-06T12:27:24.502Z,2.60
2019-03-06T12:29:58.273Z,4.00
2019-03-06T12:32:31.442Z,3.00
2019-03-06T12:35:01.469Z,1.40
2019-03-06T12:37:33.342Z,3.00
2019-03-06T12:40:12.104Z,1.00
2019-03-06T12:42:39.495Z,3.00
2019-03-06T12:45:12.778Z,3.00
2019-03-06T12:47:42.724Z,1.00
2019-03-06T12:50:15.662Z,1.00
2019-03-06T12:52:45.535Z,1.40
2019-03-06T12:55:15.356Z,1.00
2019-03-06T12:57:48.438Z,1.00
2019-03-06T13:00:28.046Z,1.00
2019-03-06T13:03:06.406Z,3.00
2019-03-06T13:05:36.407Z,2.60
2019-03-06T13:08:07.803Z,1.00
2019-03-06T13:10:37.759Z,1.80
2019-03-06T13:13:07.557Z,1.00
2019-03-06T13:15:37.147Z,1.40
2019-03-06T13:18:09.869Z,3.00
2019-03-06T13:20:40.150Z,3.60
2019-03-06T13:23:10.772Z,3.00
2019-03-06T13:25:40.959Z,1.40
2019-03-06T13:28:14.076Z,1.00
2019-03-06T13:30:43.697Z,1.80
2019-03-06T13:33:29.247Z,5.60
2019-03-06T13:36:01.133Z,0.00
2019-03-06T13:38:31.183Z,1.00
2019-03-06T13:41:00.961Z,1.80
2019-03-06T13:43:31.235Z,1.80
2019-03-06T13:46:01.154Z,3.00
2019-03-06T13:48:30.858Z,1.00
2019-03-06T13:51:02.456Z,3.00
2019-03-06T13:53:34.817Z,1.00
2019-03-06T13:56:04.661Z,1.80
2019-03-06T13:58:34.447Z,3.40
2019-03-06T14:01:05.136Z,0.20
2019-03-06T14:03:38.709Z,1.00
2019-03-06T14:06:08.768Z,3.00
2019-03-06T14:08:38.580Z,3.00
2019-03-06T14:11:08.527Z,3.80
2019-03-06T14:13:38.181Z,2.20
2019-03-06T14:16:08.267Z,3.00
2019-03-06T14:18:39.523Z,3.00
2019-03-06T14:21:09.314Z,3.00
2019-03-06T14:23:41.364Z,2.20
2019-03-06T14:26:11.114Z,1.00
2019-03-06T14:28:40.775Z,2.60
2019-03-06T14:31:12.052Z,1.00
2019-03-06T14:33:41.875Z,7.00
2019-03-06T14:36:11.788Z,2.20
2019-03-06T14:38:43.381Z,3.40
2019-03-06T14:41:13.475Z,3.00
2019-03-06T14:43:43.746Z,3.00
2019-03-06T14:46:16.856Z,3.40
2019-03-06T14:48:45.335Z,4.00
2019-03-06T14:51:15.523Z,2.60
2019-03-06T14:53:45.519Z,3.00
2019-03-06T14:56:15.088Z,3.00
2019-03-06T14:58:45.116Z,2.60
2019-03-06T15:01:18.782Z,1.00
2019-03-06T15:03:48.963Z,2.20
2019-03-06T15:06:18.722Z,3.00
2019-03-06T15:08:48.417Z,3.00
2019-03-06T15:11:18.070Z,2.60
2019-03-06T15:13:47.956Z,3.00
2019-03-06T15:16:17.798Z,3.00
2019-03-06T15:18:48.369Z,1.00
2019-03-06T15:21:18.207Z,1.40
2019-03-06T15:23:48.000Z,2.80
2019-03-06T15:26:17.900Z,3.00
2019-03-06T15:28:52.842Z,3.00
2019-03-06T15:31:22.739Z,3.20
2019-03-06T15:33:53.151Z,3.20
2019-03-06T15:36:24.321Z,3.00
2019-03-06T15:38:54.117Z,3.00
2019-03-06T15:41:26.900Z,3.00
2019-03-06T15:43:57.045Z,3.00
2019-03-06T15:46:26.783Z,3.20
2019-03-06T15:48:56.644Z,1.40
2019-03-06T15:51:27.192Z,3.60
2019-03-06T15:53:56.715Z,3.20
2019-03-06T15:56:27.447Z,3.60
2019-03-06T15:58:58.053Z,3.00
2019-03-06T16:01:33.282Z,3.00
2019-03-06T16:04:03.024Z,3.40
2019-03-06T16:06:34.864Z,1.80
2019-03-06T16:09:04.969Z,2.20
2019-03-06T16:11:35.009Z,0.00
2019-03-06T16:14:05.360Z,1.40
2019-03-06T16:16:35.506Z,3.00
2019-03-06T16:19:05.759Z,4.00
2019-03-06T16:21:36.003Z,3.00
2019-03-06T16:24:07.215Z,4.00
2019-03-06T16:26:38.256Z,4.00
2019-03-06T16:29:08.186Z,3.40
2019-03-06T16:31:38.387Z,1.00
2019-03-06T16:34:08.560Z,2.80
2019-03-06T16:36:39.557Z,1.80
2019-03-06T16:39:12.664Z,3.20
2019-03-06T16:41:43.104Z,1.40
2019-03-06T16:44:12.859Z,5.60
2019-03-06T16:46:42.908Z,3.80
2019-03-06T16:49:13.610Z,2.60
2019-03-06T16:51:44.043Z,3.00
2019-03-06T16:54:14.700Z,5.40
2019-03-06T16:56:44.631Z,3.00
2019-03-06T16:59:14.392Z,3.60
2019-03-06T17:01:50.957Z,4.00
2019-03-06T17:04:30.171Z,3.40
2019-03-06T17:06:59.867Z,4.00
2019-03-06T17:09:31.248Z,8.00
2019-03-06T17:12:04.338Z,3.00
2019-03-06T17:14:38.323Z,3.60
2019-03-06T17:17:08.505Z,4.00
2019-03-06T17:19:38.298Z,5.60
2019-03-06T17:22:12.060Z,3.20
2019-03-06T17:24:41.965Z,3.80
2019-03-06T17:27:12.043Z,3.60
2019-03-06T17:29:44.234Z,3.60
2019-03-06T17:32:14.010Z,3.00
2019-03-06T17:34:43.909Z,3.80
2019-03-06T17:37:13.632Z,6.00
2019-03-06T17:39:43.795Z,3.00
2019-03-06T17:42:13.667Z,3.60
2019-03-06T17:44:43.667Z,4.00
2019-03-06T17:47:13.983Z,5.60
2019-03-06T17:49:45.304Z,3.60
2019-03-06T17:52:17.734Z,4.00
2019-03-06T17:54:47.432Z,3.60
2019-03-06T17:57:17.515Z,3.00
2019-03-06T17:59:47.252Z,4.80
2019-03-06T18:02:17.172Z,4.00
2019-03-06T18:04:47.402Z,6.00
2019-03-06T18:07:18.224Z,6.00
2019-03-06T18:09:50.119Z,6.00
2019-03-06T18:12:20.134Z,3.80
2019-03-06T18:14:50.082Z,3.80
2019-03-06T18:17:23.496Z,3.80
2019-03-06T18:19:53.647Z,4.00
2019-03-06T18:22:23.867Z,6.80
2019-03-06T18:24:57.468Z,4.40
2019-03-06T18:27:27.495Z,4.00
2019-03-06T18:29:57.836Z,4.00
2019-03-06T18:32:28.115Z,9.00
2019-03-06T18:34:57.773Z,6.00
2019-03-06T18:37:27.895Z,4.00
2019-03-06T18:39:57.810Z,4.00
2019-03-06T18:42:30.018Z,3.20
2019-03-06T18:45:00.379Z,5.20
2019-03-06T18:47:39.622Z,5.60
2019-03-06T18:50:11.739Z,5.60
2019-03-06T18:52:42.405Z,5.60
2019-03-06T18:55:12.355Z,5.60
2019-03-06T18:57:42.622Z,7.00
2019-03-06T19:00:15.184Z,4.00
2019-03-06T19:02:45.003Z,3.60
2019-03-06T19:05:15.292Z,1.80
2019-03-06T19:07:46.131Z,6.40
2019-03-06T19:10:17.609Z,9.20
2019-03-06T19:12:48.829Z,3.00
2019-03-06T19:15:19.681Z,6.00
2019-03-06T19:17:49.733Z,9.00
2019-03-06T19:20:19.913Z,4.00
2019-03-06T19:22:49.567Z,3.60
2019-03-06T19:25:19.726Z,6.20
2019-03-06T19:27:52.960Z,5.60
2019-03-06T19:30:23.136Z,6.00
2019-03-06T19:32:55.289Z,7.00
2019-03-06T19:35:25.123Z,6.00
2019-03-06T19:37:55.245Z,6.00
2019-03-06T19:40:25.895Z,4.00
2019-03-06T19:42:56.142Z,6.20
2019-03-06T19:45:25.858Z,6.00
2019-03-06T19:47:56.030Z,6.00
2019-03-06T19:50:26.302Z,6.00
2019-03-06T19:52:56.069Z,5.60
2019-03-06T19:55:32.184Z,4.40
2019-03-06T19:58:03.589Z,6.00
2019-03-06T20:00:33.419Z,4.80
2019-03-06T20:03:04.165Z,6.40
2019-03-06T20:05:36.355Z,6.00
2019-03-06T20:08:08.364Z,8.20
2019-03-06T20:10:38.768Z,7.00
2019-03-06T20:13:08.704Z,6.60
2019-03-06T20:15:40.187Z,4.40
2019-03-06T20:18:10.346Z,4.80
2019-03-06T20:20:41.758Z,4.40
2019-03-06T20:23:13.137Z,3.00
2019-03-06T20:25:43.157Z,7.60
2019-03-06T20:28:15.323Z,6.80
2019-03-06T20:30:45.132Z,4.80
2019-03-06T20:33:14.832Z,4.00
2019-03-06T20:35:45.839Z,3.00
2019-03-06T20:38:15.682Z,8.20
2019-03-06T20:40:46.076Z,6.60
2019-03-06T20:43:16.157Z,4.00
2019-03-06T20:45:47.098Z,7.80
2019-03-06T20:48:17.191Z,4.80
2019-03-06T20:50:47.244Z,4.80
2019-03-06T20:53:20.202Z,4.40
2019-03-06T20:55:53.494Z,6.40
2019-03-06T20:58:23.324Z,3.40
2019-03-06T21:00:53.465Z,3.00
2019-03-06T21:03:23.918Z,1.80
2019-03-06T21:05:53.462Z,6.00
2019-03-06T21:08:23.268Z,4.00
2019-03-06T21:10:55.721Z,7.40
2019-03-06T21:13:25.471Z,5.60
2019-03-06T21:15:55.716Z,4.00
2019-03-06T21:18:30.146Z,6.40
2019-03-06T21:21:03.305Z,4.80
2019-03-06T21:23:38.164Z,6.40
2019-03-06T21:26:08.144Z,5.20
2019-03-06T21:28:37.898Z,6.40
2019-03-06T21:31:08.151Z,5.60
2019-03-06T21:33:39.381Z,6.20
2019-03-06T21:36:09.663Z,5.60
2019-03-06T21:38:39.235Z,6.00
2019-03-06T21:41:09.669Z,7.00
2019-03-06T21:43:39.567Z,6.00
2019-03-06T21:46:09.535Z,7.00
2019-03-06T21:48:39.245Z,6.60
2019-03-06T21:51:09.314Z,7.80
2019-03-06T21:53:39.292Z,6.00
2019-03-06T21:56:11.621Z,7.80
2019-03-06T21:58:41.562Z,5.60
2019-03-06T22:01:11.293Z,6.40
2019-03-06T22:06:17.811Z,11.00
2019-03-06T22:08:48.706Z,7.20
2019-03-06T22:11:19.451Z,7.00
2019-03-06T22:13:49.343Z,9.00
2019-03-06T22:16:19.787Z,5.20
2019-03-06T22:18:49.693Z,1.00
2019-03-06T22:21:19.537Z,7.00
2019-03-06T22:23:49.363Z,5.20
2019-03-06T22:26:19.310Z,7.00
2019-03-06T22:28:49.658Z,6.20
2019-03-06T22:31:19.661Z,4.00
2019-03-06T22:33:49.349Z,5.40
2019-03-06T22:36:19.038Z,6.00
2019-03-06T22:38:55.101Z,4.00
2019-03-06T22:41:27.096Z,6.60
2019-03-06T22:43:57.078Z,6.00
2019-03-06T22:46:26.809Z,4.00
2019-03-06T22:48:57.035Z,6.20
2019-03-06T22:51:27.450Z,4.00
2019-03-06T22:53:57.350Z,6.00
2019-03-06T22:56:27.667Z,5.20
2019-03-06T22:58:57.645Z,4.40
2019-03-06T23:01:38.445Z,6.40
2019-03-06T23:04:09.969Z,8.60
2019-03-06T23:06:40.090Z,6.40
2019-03-06T23:09:12.051Z,7.00
2019-03-06T23:11:42.067Z,6.60
2019-03-06T23:14:12.054Z,6.20
2019-03-06T23:16:41.885Z,6.00
2019-03-06T23:19:11.736Z,6.60
2019-03-06T23:21:41.537Z,4.40
2019-03-06T23:24:12.060Z,8.20
2019-03-06T23:26:43.105Z,6.40
2019-03-06T23:29:13.437Z,6.20
2019-03-06T23:31:43.568Z,6.00
2019-03-06T23:34:13.649Z,7.80
2019-03-06T23:36:43.331Z,7.00
2019-03-06T23:39:16.795Z,9.00
2019-03-06T23:41:46.724Z,7.00
2019-03-06T23:44:16.579Z,4.80
2019-03-06T23:46:46.576Z,7.00
2019-03-06T23:49:16.201Z,3.80
2019-03-06T23:52:04.656Z,5.60
2019-03-06T23:54:34.520Z,6.00
2019-03-06T23:57:04.138Z,5.60
2019-03-06T23:59:34.044Z,6.40
